createdAt,value
2023-01-11T00:00:00.911Z,95.89
2023-01-11T00:02:18.073Z,96.31
2023-01-11T00:04:37.650Z,96.02
2023-01-11T00:06:54.789Z,96.15
2023-01-11T00:09:11.803Z,96.40
2023-01-11T00:11:28.795Z,96.38
2023-01-11T00:13:46.905Z,96.66
2023-01-11T00:16:04.207Z,96.88
2023-01-11T00:18:22.271Z,96.62
2023-01-11T00:20:39.271Z,97.01
2023-01-11T00:22:56.759Z,96.87
2023-01-11T00:25:13.736Z,97.18
2023-01-11T00:27:30.933Z,96.90
2023-01-11T00:29:48.173Z,96.93
2023-01-11T00:32:05.584Z,97.00
2023-01-11T00:34:22.627Z,97.26
2023-01-11T00:36:39.928Z,96.83
2023-01-11T00:38:56.967Z,96.53
2023-01-11T00:41:14.254Z,96.59
2023-01-11T00:43:31.569Z,96.79
2023-01-11T00:45:48.781Z,96.72
2023-01-11T00:48:07.164Z,97.05
2023-01-11T00:50:24.201Z,97.55
2023-01-11T00:52:41.617Z,97.39
2023-01-11T00:54:58.676Z,97.59
2023-01-11T00:57:16.061Z,97.63
2023-01-11T00:59:34.465Z,97.12
2023-01-11T01:01:51.846Z,97.91
2023-01-11T01:04:09.805Z,98.03
2023-01-11T01:06:27.262Z,97.79
2023-01-11T01:08:44.585Z,98.23
2023-01-11T01:11:01.521Z,97.88
2023-01-11T01:13:18.501Z,98.06
2023-01-11T01:15:35.558Z,98.12
2023-01-11T01:17:52.646Z,97.92
2023-01-11T01:20:09.742Z,98.40
2023-01-11T01:22:26.853Z,98.60
2023-01-11T01:24:43.823Z,98.35
2023-01-11T01:27:01.847Z,98.05
2023-01-11T01:29:18.986Z,98.85
2023-01-11T01:31:36.062Z,98.61
2023-01-11T01:33:53.145Z,98.97
2023-01-11T01:36:10.207Z,99.09
2023-01-11T01:38:27.218Z,98.36
2023-01-11T01:40:44.216Z,98.67
2023-01-11T01:43:01.497Z,99.01
2023-01-11T01:45:18.842Z,98.56
2023-01-11T01:47:35.948Z,99.19
2023-01-11T01:49:52.924Z,99.16
2023-01-11T01:52:09.975Z,98.98
2023-01-11T01:54:26.861Z,98.83
2023-01-11T01:56:44.210Z,99.59
2023-01-11T01:59:02.428Z,99.18
2023-01-11T02:01:22.097Z,99.11
2023-01-11T02:03:39.165Z,99.20
2023-01-11T02:05:57.358Z,99.80
2023-01-11T02:08:14.273Z,99.10
2023-01-11T02:10:31.264Z,99.39
2023-01-11T02:12:48.331Z,99.44
2023-01-11T02:15:05.659Z,99.41
2023-01-11T02:17:24.330Z,99.74
2023-01-11T02:19:41.420Z,99.64
2023-01-11T02:21:58.871Z,100.00
2023-01-11T02:24:15.965Z,100.00
2023-01-11T02:26:33.311Z,99.84
2023-01-11T02:28:50.698Z,99.80
2023-01-11T02:31:08.187Z,99.90
2023-01-11T02:33:25.839Z,99.39
2023-01-11T02:35:42.812Z,99.97
2023-01-11T02:38:00.090Z,99.53
2023-01-11T02:40:18.642Z,99.79
2023-01-11T02:42:36.545Z,99.79
2023-01-11T02:44:53.681Z,99.71
2023-01-11T02:47:10.989Z,100.00
2023-01-11T02:49:28.381Z,100.00
2023-01-11T02:51:45.342Z,100.00
2023-01-11T02:54:02.657Z,100.00
2023-01-11T02:56:19.550Z,100.00
2023-01-11T02:58:37.444Z,99.64
2023-01-11T03:00:54.375Z,100.00
2023-01-11T03:03:11.392Z,99.80
2023-01-11T03:05:29.256Z,100.00
2023-01-11T03:07:46.262Z,99.95
2023-01-11T03:10:04.550Z,99.80
2023-01-11T03:12:21.507Z,100.00
2023-01-11T03:14:38.585Z,99.36
2023-01-11T03:16:55.660Z,99.97
2023-01-11T03:19:12.710Z,98.86
2023-01-11T03:21:30.053Z,100.00
2023-01-11T03:23:47.097Z,100.00
2023-01-11T03:26:04.999Z,100.00
2023-01-11T03:28:22.097Z,99.49
2023-01-11T03:30:39.058Z,100.00
2023-01-11T03:32:56.108Z,99.83
2023-01-11T03:35:13.354Z,99.96
2023-01-11T03:37:30.699Z,100.00
2023-01-11T03:39:47.790Z,100.00
2023-01-11T03:42:04.850Z,99.31
2023-01-11T03:44:22.801Z,98.91
2023-01-11T03:46:40.139Z,100.00
2023-01-11T03:48:57.615Z,99.16
2023-01-11T03:51:15.485Z,98.56
2023-01-11T03:53:32.822Z,99.09
2023-01-11T03:55:50.889Z,99.34
2023-01-11T03:58:07.829Z,99.96
2023-01-11T04:00:25.122Z,100.00
2023-01-11T04:02:42.175Z,100.00
2023-01-11T04:05:00.177Z,99.07
2023-01-11T04:07:17.216Z,98.41
2023-01-11T04:09:35.513Z,98.54
2023-01-11T04:11:54.095Z,98.73
2023-01-11T04:14:12.866Z,98.50
2023-01-11T04:16:30.921Z,99.34
2023-01-11T04:18:48.324Z,98.82
2023-01-11T04:21:05.369Z,98.61
2023-01-11T04:23:22.671Z,99.30
2023-01-11T04:25:39.706Z,97.79
2023-01-11T04:27:56.725Z,97.81
2023-01-11T04:30:13.808Z,96.99
2023-01-11T04:32:30.798Z,97.36
2023-01-11T04:34:47.880Z,98.94
2023-01-11T04:37:06.124Z,97.79
2023-01-11T04:39:23.348Z,98.25
2023-01-11T04:41:40.668Z,98.43
2023-01-11T04:43:57.746Z,98.33
2023-01-11T04:46:15.200Z,98.05
2023-01-11T04:48:32.450Z,98.82
2023-01-11T04:50:50.760Z,97.83
2023-01-11T04:53:07.688Z,97.94
2023-01-11T04:55:24.664Z,99.19
2023-01-11T04:57:42.607Z,99.50
2023-01-11T04:59:59.771Z,99.00
2023-01-11T05:02:16.771Z,99.51
2023-01-11T05:04:33.815Z,98.50
2023-01-11T05:06:51.168Z,98.56
2023-01-11T05:09:09.472Z,99.63
2023-01-11T05:11:26.350Z,98.49
2023-01-11T05:13:43.730Z,99.31
2023-01-11T05:16:01.789Z,99.64
2023-01-11T05:18:18.707Z,98.16
2023-01-11T05:20:36.775Z,99.01
2023-01-11T05:22:53.794Z,99.59
2023-01-11T05:25:11.874Z,99.06
2023-01-11T05:27:29.898Z,98.83
2023-01-11T05:29:47.126Z,98.14
2023-01-11T05:32:04.173Z,98.70
2023-01-11T05:34:22.259Z,99.58
2023-01-11T05:36:39.551Z,100.00
2023-01-11T05:38:57.473Z,100.00
2023-01-11T05:41:14.472Z,99.71
2023-01-11T05:43:33.064Z,98.27
2023-01-11T05:45:50.426Z,99.67
2023-01-11T05:48:07.645Z,98.93
2023-01-11T05:50:26.946Z,100.00
2023-01-11T05:52:43.985Z,99.71
2023-01-11T05:55:01.014Z,98.42
2023-01-11T05:57:18.051Z,99.29
2023-01-11T05:59:35.097Z,100.00
2023-01-11T06:01:52.450Z,99.81
2023-01-11T06:04:09.384Z,100.00
2023-01-11T06:06:26.689Z,98.72
2023-01-11T06:08:44.959Z,99.01
2023-01-11T06:11:01.970Z,98.54
2023-01-11T06:13:18.966Z,99.21
2023-01-11T06:15:35.842Z,99.31
2023-01-11T06:17:52.885Z,99.69
2023-01-11T06:20:10.207Z,99.34
2023-01-11T06:22:27.250Z,99.32
2023-01-11T06:24:45.299Z,98.62
2023-01-11T06:27:03.283Z,98.89
2023-01-11T06:29:21.628Z,98.41
2023-01-11T06:31:38.877Z,98.33
2023-01-11T06:33:56.269Z,98.48
2023-01-11T06:36:14.234Z,100.00
2023-01-11T06:38:31.140Z,100.00
2023-01-11T06:40:48.407Z,100.00
2023-01-11T06:43:05.383Z,100.00
2023-01-11T06:45:23.638Z,99.75
2023-01-11T06:47:40.551Z,99.41
2023-01-11T06:49:58.493Z,99.81
2023-01-11T06:52:15.443Z,100.00
2023-01-11T06:54:32.686Z,99.96
2023-01-11T06:56:49.672Z,98.60
2023-01-11T06:59:07.208Z,99.47
2023-01-11T07:01:24.319Z,100.00
2023-01-11T07:03:41.301Z,99.88
2023-01-11T07:05:58.340Z,99.60
2023-01-11T07:08:15.656Z,99.52
2023-01-11T07:10:32.947Z,98.42
2023-01-11T07:12:49.820Z,98.55
2023-01-11T07:15:07.157Z,99.21
2023-01-11T07:17:24.203Z,99.70
2023-01-11T07:19:42.523Z,99.23
2023-01-11T07:21:59.811Z,100.00
2023-01-11T07:24:17.103Z,99.83
2023-01-11T07:26:34.128Z,100.00
2023-01-11T07:28:51.455Z,100.00
2023-01-11T07:31:08.586Z,99.73
2023-01-11T07:33:26.975Z,99.10
2023-01-11T07:35:44.241Z,99.30
2023-01-11T07:38:02.509Z,99.55
2023-01-11T07:40:19.789Z,99.82
2023-01-11T07:42:37.072Z,98.56
2023-01-11T07:44:55.322Z,98.84
2023-01-11T07:47:12.373Z,99.98
2023-01-11T07:49:29.736Z,99.16
2023-01-11T07:51:47.033Z,99.03
2023-01-11T07:54:04.082Z,98.81
2023-01-11T07:56:23.458Z,99.06
2023-01-11T07:58:40.530Z,99.79
2023-01-11T08:00:57.626Z,100.00
2023-01-11T08:03:14.625Z,98.66
2023-01-11T08:05:32.981Z,99.70
2023-01-11T08:07:49.984Z,99.78
2023-01-11T08:10:06.945Z,100.00
2023-01-11T08:12:23.859Z,98.96
2023-01-11T08:14:41.869Z,100.00
2023-01-11T08:16:59.190Z,100.00
2023-01-11T08:19:16.147Z,100.00
2023-01-11T08:21:33.399Z,100.00
2023-01-11T08:23:51.733Z,100.00
2023-01-11T08:26:08.698Z,100.00
2023-01-11T08:28:25.996Z,100.00
2023-01-11T08:30:43.007Z,100.00
2023-01-11T08:33:01.212Z,100.00
2023-01-11T08:35:18.347Z,99.30
2023-01-11T08:37:36.382Z,100.00
2023-01-11T08:39:53.673Z,100.00
2023-01-11T08:42:10.718Z,100.00
2023-01-11T08:44:35.370Z,99.65
2023-01-11T08:46:52.642Z,100.00
2023-01-11T08:49:09.985Z,100.00
2023-01-11T08:51:27.360Z,100.00
2023-01-11T08:53:44.603Z,99.53
2023-01-11T08:56:01.881Z,99.25
2023-01-11T08:58:20.689Z,99.97
2023-01-11T09:00:38.522Z,99.30
2023-01-11T09:02:55.831Z,99.82
2023-01-11T09:05:13.139Z,99.10
2023-01-11T09:07:30.270Z,100.00
2023-01-11T09:09:47.406Z,98.69
2023-01-11T09:12:05.836Z,99.50
2023-01-11T09:14:23.327Z,100.00
2023-01-11T09:16:40.390Z,100.00
2023-01-11T09:18:57.429Z,99.66
2023-01-11T09:21:15.521Z,100.00
2023-01-11T09:23:32.599Z,98.14
2023-01-11T09:25:49.688Z,99.49
2023-01-11T09:28:06.793Z,97.47
2023-01-11T09:30:23.803Z,98.66
2023-01-11T09:32:41.092Z,99.50
2023-01-11T09:34:58.421Z,98.48
2023-01-11T09:37:15.507Z,98.37
2023-01-11T09:39:32.405Z,99.01
2023-01-11T09:41:50.762Z,98.56
2023-01-11T09:44:08.073Z,98.60
2023-01-11T09:46:25.099Z,98.60
2023-01-11T09:48:42.464Z,99.71
2023-01-11T09:50:59.895Z,99.25
2023-01-11T09:53:16.960Z,98.47
2023-01-11T09:55:34.247Z,97.13
2023-01-11T09:57:51.221Z,97.71
2023-01-11T10:00:08.522Z,97.77
2023-01-11T10:02:25.490Z,98.98
2023-01-11T10:04:42.833Z,97.50
2023-01-11T10:06:59.816Z,96.52
2023-01-11T10:18:22.775Z,98.54
2023-01-11T10:18:39.797Z,98.49
2023-01-11T10:19:45.748Z,98.74
2023-01-11T10:22:03.117Z,99.49
2023-01-11T10:24:20.223Z,98.74
2023-01-11T10:26:37.514Z,99.34
2023-01-11T10:28:54.805Z,98.49
2023-01-11T10:31:11.811Z,98.79
2023-01-11T10:33:28.894Z,99.18
2023-01-11T10:35:48.181Z,99.39
2023-01-11T10:38:05.317Z,99.58
2023-01-11T10:40:22.405Z,99.65
2023-01-11T10:42:39.531Z,100.00
2023-01-11T10:44:56.835Z,99.76
2023-01-11T10:47:15.998Z,99.33
2023-01-11T10:49:35.547Z,98.58
2023-01-11T10:51:53.213Z,98.84
2023-01-11T10:54:10.592Z,96.19
2023-01-11T10:56:27.961Z,93.56
2023-01-11T10:58:44.957Z,93.14
2023-01-11T11:01:02.268Z,93.18
2023-01-11T11:03:20.149Z,91.88
2023-01-11T11:05:37.321Z,91.84
2023-01-11T11:07:55.020Z,91.61
2023-01-11T11:10:12.127Z,89.38
2023-01-11T11:12:29.569Z,90.49
2023-01-11T11:14:47.745Z,90.17
2023-01-11T11:17:04.717Z,90.20
2023-01-11T11:19:21.911Z,89.76
2023-01-11T11:21:39.165Z,90.03
2023-01-11T11:23:56.243Z,90.08
2023-01-11T11:26:13.162Z,89.41
2023-01-11T11:28:30.541Z,89.42
2023-01-11T11:30:47.579Z,91.00
2023-01-11T11:33:05.007Z,90.88
2023-01-11T11:35:24.995Z,91.49
2023-01-11T11:37:42.290Z,90.53
2023-01-11T11:39:59.632Z,87.83
2023-01-11T11:42:17.023Z,88.63
2023-01-11T11:44:34.138Z,89.66
2023-01-11T11:46:51.457Z,89.65
2023-01-11T11:49:08.671Z,88.48
2023-01-11T11:51:27.064Z,87.49
2023-01-11T11:53:44.495Z,86.54
2023-01-11T11:56:03.803Z,86.94
2023-01-11T11:58:21.849Z,86.27
2023-01-11T12:00:38.811Z,87.51
2023-01-11T12:02:55.820Z,88.03
2023-01-11T12:05:13.218Z,88.13
2023-01-11T12:07:30.273Z,88.83
2023-01-11T12:09:47.603Z,88.45
2023-01-11T12:12:04.744Z,87.74
2023-01-11T12:14:22.956Z,89.14
2023-01-11T12:16:40.019Z,89.58
2023-01-11T12:19:00.128Z,90.49
2023-01-11T12:21:18.538Z,90.80
2023-01-11T12:23:36.550Z,91.00
2023-01-11T12:25:54.411Z,92.04
2023-01-11T12:28:11.554Z,92.02
2023-01-11T12:30:29.789Z,91.49
2023-01-11T12:32:47.077Z,92.39
2023-01-11T12:35:04.329Z,91.75
2023-01-11T12:37:22.697Z,91.78
2023-01-11T12:39:40.046Z,91.65
2023-01-11T12:41:57.375Z,91.08
2023-01-11T12:44:14.721Z,91.21
2023-01-11T12:46:34.144Z,90.95
2023-01-11T12:48:53.388Z,89.31
2023-01-11T12:51:10.316Z,89.87
2023-01-11T12:53:27.334Z,89.97
2023-01-11T12:55:44.497Z,89.41
2023-01-11T12:58:02.979Z,89.51
2023-01-11T13:00:20.241Z,90.24
2023-01-11T13:02:37.308Z,89.94
2023-01-11T13:04:54.309Z,90.20
2023-01-11T13:07:11.299Z,89.82
2023-01-11T13:09:29.547Z,89.72
2023-01-11T13:11:46.571Z,88.73
2023-01-11T13:14:03.726Z,87.29
2023-01-11T13:16:20.693Z,87.24
2023-01-11T13:18:38.002Z,86.13
2023-01-11T13:21:03.915Z,86.19
2023-01-11T13:23:21.503Z,84.28
2023-01-11T13:25:38.825Z,83.55
2023-01-11T13:27:55.826Z,81.93
2023-01-11T13:30:13.931Z,82.49
2023-01-11T13:32:31.345Z,82.30
2023-01-11T13:34:48.452Z,82.19
2023-01-11T13:37:05.605Z,81.42
2023-01-11T13:39:22.677Z,82.99
2023-01-11T13:41:39.821Z,82.91
2023-01-11T13:43:56.972Z,83.38
2023-01-11T13:46:14.010Z,84.46
2023-01-11T13:48:31.469Z,84.15
2023-01-11T13:50:48.906Z,83.82
2023-01-11T13:53:06.843Z,84.72
2023-01-11T13:55:26.505Z,84.78
2023-01-11T13:57:43.852Z,84.84
2023-01-11T14:00:01.083Z,84.46
2023-01-11T14:02:18.045Z,84.59
2023-01-11T14:04:35.066Z,84.24
2023-01-11T14:06:52.034Z,85.22
2023-01-11T14:09:10.078Z,84.65
2023-01-11T14:11:27.603Z,84.17
2023-01-11T14:13:44.561Z,84.03
2023-01-11T14:16:01.991Z,81.82
2023-01-11T14:18:19.453Z,83.22
2023-01-11T14:20:36.794Z,82.27
2023-01-11T14:22:53.916Z,82.39
2023-01-11T14:25:11.045Z,83.38
2023-01-11T14:27:28.104Z,83.56
2023-01-11T14:29:45.494Z,83.98
2023-01-11T14:32:02.886Z,84.29
2023-01-11T14:34:20.551Z,83.98
2023-01-11T14:36:38.876Z,83.24
2023-01-11T14:38:55.932Z,83.35
2023-01-11T14:41:13.877Z,83.45
2023-01-11T14:43:30.955Z,82.61
2023-01-11T14:45:48.422Z,81.29
2023-01-11T14:48:05.347Z,82.89
2023-01-11T14:50:23.748Z,82.19
2023-01-11T14:52:40.972Z,81.03
2023-01-11T14:54:58.120Z,80.26
2023-01-11T14:57:15.411Z,82.28
2023-01-11T14:59:33.336Z,82.42
2023-01-11T15:01:50.494Z,83.18
2023-01-11T15:04:07.719Z,81.64
2023-01-11T15:06:24.805Z,82.20
2023-01-11T15:08:41.836Z,82.52
2023-01-11T15:10:59.151Z,79.83
2023-01-11T15:13:16.534Z,80.68
2023-01-11T15:15:33.775Z,82.03
2023-01-11T15:17:50.736Z,82.82
2023-01-11T15:20:08.025Z,82.61
2023-01-11T15:22:26.312Z,81.83
2023-01-11T15:24:43.340Z,82.54
2023-01-11T15:27:00.330Z,82.12
2023-01-11T15:29:17.424Z,84.98
2023-01-11T15:31:34.762Z,84.73
2023-01-11T15:33:51.903Z,85.76
2023-01-11T15:36:09.228Z,86.19
2023-01-11T15:38:26.480Z,87.18
2023-01-11T15:40:43.809Z,87.58
2023-01-11T15:43:01.041Z,86.36
2023-01-11T15:45:18.063Z,87.41
2023-01-11T15:47:35.071Z,86.40
2023-01-11T15:49:52.098Z,87.16
2023-01-11T15:52:09.334Z,87.40
2023-01-11T15:54:26.307Z,87.67
2023-01-11T15:56:43.381Z,88.45
2023-01-11T15:59:01.924Z,88.96
2023-01-11T16:01:19.001Z,89.56
2023-01-11T16:03:36.464Z,89.61
2023-01-11T16:05:53.394Z,89.80
2023-01-11T16:08:10.476Z,90.22
2023-01-11T16:10:27.808Z,90.62
2023-01-11T16:12:45.054Z,91.32
2023-01-11T16:15:05.968Z,91.65
2023-01-11T16:17:26.604Z,91.97
2023-01-11T16:19:43.669Z,93.58
2023-01-11T16:22:01.082Z,92.64
2023-01-11T16:24:18.404Z,92.81
2023-01-11T16:26:35.549Z,92.23
2023-01-11T16:28:52.619Z,92.08
2023-01-11T16:31:09.954Z,90.64
2023-01-11T16:33:27.309Z,89.50
2023-01-11T16:35:45.658Z,87.63
2023-01-11T16:38:02.895Z,87.63
2023-01-11T16:40:19.971Z,87.74
2023-01-11T16:42:37.272Z,89.22
2023-01-11T16:44:54.703Z,89.43
2023-01-11T16:47:12.415Z,88.85
2023-01-11T16:49:29.537Z,88.61
2023-01-11T16:51:48.055Z,88.94
2023-01-11T16:54:06.333Z,89.66
2023-01-11T16:56:23.547Z,89.86
2023-01-11T16:58:41.629Z,89.11
2023-01-11T17:00:59.112Z,90.47
2023-01-11T17:03:16.625Z,90.81
2023-01-11T17:05:34.742Z,90.05
2023-01-11T17:07:51.827Z,90.86
2023-01-11T17:10:09.768Z,91.04
2023-01-11T17:12:26.973Z,90.99
2023-01-11T17:14:43.933Z,90.97
2023-01-11T17:17:01.189Z,90.98
2023-01-11T17:19:18.617Z,91.67
2023-01-11T17:21:35.781Z,91.56
2023-01-11T17:23:54.148Z,92.90
2023-01-11T17:26:14.691Z,92.61
2023-01-11T17:28:32.050Z,93.43
2023-01-11T17:30:49.205Z,93.46
2023-01-11T17:33:06.159Z,93.49
2023-01-11T17:35:23.460Z,93.61
2023-01-11T17:37:40.564Z,93.54
2023-01-11T17:39:57.612Z,93.82
2023-01-11T17:42:15.728Z,93.78
2023-01-11T17:44:34.799Z,94.10
2023-01-11T17:46:51.876Z,94.55
2023-01-11T17:51:43.276Z,94.85
2023-01-11T17:54:00.219Z,95.05
2023-01-11T17:56:18.499Z,95.35
2023-01-11T17:58:36.552Z,95.60
2023-01-11T18:00:53.633Z,95.32
2023-01-11T18:03:11.021Z,95.80
2023-01-11T18:05:28.639Z,95.65
2023-01-11T18:07:45.795Z,95.59
2023-01-11T18:10:03.852Z,95.38
2023-01-11T18:12:24.143Z,95.51
2023-01-11T18:14:41.200Z,96.00
2023-01-11T18:16:59.563Z,96.42
2023-01-11T18:19:16.637Z,96.13
2023-01-11T18:21:34.243Z,95.96
2023-01-11T18:23:51.430Z,95.61
2023-01-11T18:26:09.525Z,95.66
2023-01-11T18:28:27.804Z,95.53
2023-01-11T18:30:44.765Z,95.63
2023-01-11T18:33:02.116Z,95.40
2023-01-11T18:35:19.493Z,95.16
2023-01-11T18:37:37.643Z,95.48
2023-01-11T18:39:54.816Z,95.58
2023-01-11T18:42:11.932Z,95.75
2023-01-11T18:44:29.205Z,95.82
2023-01-11T18:46:47.305Z,95.87
2023-01-11T18:49:04.408Z,95.81
2023-01-11T18:51:22.666Z,95.67
2023-01-11T18:53:39.682Z,95.50
2023-01-11T18:55:57.081Z,95.42
2023-01-11T18:58:14.120Z,95.37
2023-01-11T19:00:33.142Z,94.99
2023-01-11T19:05:07.483Z,95.36
2023-01-11T19:07:24.549Z,96.03
2023-01-11T19:09:41.677Z,95.78
2023-01-11T19:11:58.685Z,96.28
2023-01-11T19:14:15.814Z,96.23
2023-01-11T19:16:32.872Z,96.33
2023-01-11T19:18:50.149Z,96.36
2023-01-11T19:21:07.487Z,96.16
2023-01-11T19:25:46.559Z,95.43
2023-01-11T19:28:03.637Z,95.81
2023-01-11T19:30:21.084Z,95.72
2023-01-11T19:32:38.177Z,96.22
2023-01-11T19:34:56.448Z,96.02
2023-01-11T19:37:13.423Z,95.54
2023-01-11T19:39:30.690Z,95.62
2023-01-11T19:41:48.772Z,96.03
2023-01-11T19:44:05.718Z,96.69
2023-01-11T19:46:31.656Z,96.41
2023-01-11T19:48:49.150Z,96.99
2023-01-11T19:51:06.494Z,96.96
2023-01-11T19:53:23.642Z,97.18
2023-01-11T19:55:40.718Z,97.29
2023-01-11T19:57:57.619Z,97.00
2023-01-11T20:00:17.691Z,97.22
2023-01-11T20:02:34.818Z,96.82
2023-01-11T20:04:54.585Z,96.89
2023-01-11T20:07:11.529Z,97.42
2023-01-11T20:09:29.758Z,97.96
2023-01-11T20:11:46.823Z,97.76
2023-01-11T20:14:03.857Z,97.33
2023-01-11T20:16:21.856Z,97.63
2023-01-11T20:18:38.888Z,97.33
2023-01-11T20:20:55.943Z,97.46
2023-01-11T20:23:13.190Z,97.67
2023-01-11T20:25:30.251Z,97.60
2023-01-11T20:27:47.647Z,97.08
2023-01-11T20:30:04.688Z,97.56
2023-01-11T20:32:42.223Z,97.22
2023-01-11T20:34:59.808Z,97.43
2023-01-11T20:37:18.005Z,97.66
2023-01-11T20:39:35.084Z,97.67
2023-01-11T20:41:52.044Z,98.15
2023-01-11T20:44:09.084Z,97.67
2023-01-11T20:46:26.533Z,98.02
2023-01-11T20:48:43.598Z,98.06
2023-01-11T20:51:00.604Z,97.38
2023-01-11T20:53:18.459Z,97.38
2023-01-11T20:55:35.507Z,98.08
2023-01-11T20:57:54.033Z,97.15
2023-01-11T21:02:26.759Z,97.03
2023-01-11T21:04:43.776Z,96.72
2023-01-11T21:07:00.705Z,97.21
2023-01-11T21:09:18.784Z,97.48
2023-01-11T21:11:35.776Z,97.12
2023-01-11T21:13:52.856Z,96.88
2023-01-11T21:16:09.912Z,96.61
2023-01-11T21:18:27.933Z,96.30
2023-01-11T21:20:45.041Z,96.45
2023-01-11T21:23:01.919Z,95.75
2023-01-11T21:25:20.187Z,95.60
2023-01-11T21:27:37.197Z,95.62
2023-01-11T21:29:54.263Z,95.23
2023-01-11T21:32:11.384Z,95.12
2023-01-11T21:34:29.486Z,94.84
2023-01-11T21:36:46.787Z,95.04
2023-01-11T21:39:04.138Z,94.65
2023-01-11T21:41:21.082Z,94.59
2023-01-11T21:43:38.589Z,94.81
2023-01-11T21:45:55.957Z,94.82
2023-01-11T21:48:14.281Z,94.89
2023-01-11T21:50:40.204Z,94.77
2023-01-11T21:52:57.293Z,94.61
2023-01-11T21:55:14.833Z,94.88
2023-01-11T21:57:34.976Z,94.63
2023-01-11T21:59:52.068Z,94.04
2023-01-11T22:02:10.507Z,94.23
2023-01-11T22:04:27.485Z,93.45
2023-01-11T22:06:45.475Z,93.28
2023-01-11T22:09:04.199Z,93.42
2023-01-11T22:11:22.054Z,93.78
2023-01-11T22:13:39.115Z,93.77
2023-01-11T22:15:57.555Z,93.87
2023-01-11T22:18:14.851Z,93.34
2023-01-11T22:20:31.954Z,92.84
2023-01-11T22:22:49.307Z,91.72
2023-01-11T22:25:06.314Z,91.39
2023-01-11T22:27:23.411Z,92.00
2023-01-11T22:29:40.437Z,91.17
2023-01-11T22:31:59.801Z,92.17
2023-01-11T22:34:16.922Z,92.03
2023-01-11T22:36:33.903Z,92.28
2023-01-11T22:38:50.868Z,92.01
2023-01-11T22:41:07.833Z,92.11
2023-01-11T22:43:25.124Z,91.39
2023-01-11T22:45:42.229Z,91.92
2023-01-11T22:47:59.538Z,91.92
2023-01-11T22:50:16.506Z,91.69
2023-01-11T22:52:33.522Z,91.79
2023-01-11T22:54:50.755Z,91.48
2023-01-11T22:57:07.788Z,91.40
2023-01-11T22:59:24.773Z,91.52
2023-01-11T23:01:42.055Z,90.60
2023-01-11T23:03:59.300Z,90.58
2023-01-11T23:06:16.289Z,91.17
2023-01-11T23:08:33.247Z,90.08
2023-01-11T23:10:50.472Z,90.21
2023-01-11T23:13:07.855Z,90.60
2023-01-11T23:15:25.193Z,90.85
2023-01-11T23:17:42.437Z,90.91
2023-01-11T23:19:59.829Z,90.38
2023-01-11T23:22:17.365Z,90.69
2023-01-11T23:24:34.408Z,90.11
2023-01-11T23:26:51.336Z,90.73
2023-01-11T23:29:08.726Z,90.87
2023-01-11T23:31:25.932Z,90.92
2023-01-11T23:33:42.933Z,88.87
2023-01-11T23:36:00.057Z,89.92
2023-01-11T23:38:17.416Z,90.47
2023-01-11T23:40:34.518Z,89.83
2023-01-11T23:42:51.841Z,91.06
2023-01-11T23:45:09.201Z,90.05
2023-01-11T23:47:26.396Z,89.98
2023-01-11T23:49:43.497Z,90.30
2023-01-11T23:52:01.563Z,90.33
2023-01-11T23:54:20.471Z,90.28
2023-01-11T23:56:37.545Z,91.37
2023-01-11T23:58:54.542Z,90.40
